Time;durP1;ratioP1;P1;durP2;ratioP2;P2;SDS_P1;SDS_P2;PMS_P1;PMS_P2;Temp;Humidity;BMP_temperature;BMP_pressure;BME280_temperature;BME280_humidity;BME280_pressure;Samples;Min_cycle;Max_cycle;Signal;HPM_P1;HPM_P2
2022/04/26 03:39:33;;;;;;;5.9;4.8;;;;;;;;;;;;;
2022/04/26 03:41:58;;;;;;;7.2;5.1;;;;;;;;;;;;;
2022/04/26 03:44:23;;;;;;;5.1;4.6;;;;;;;;;;;;;
2022/04/26 03:46:48;;;;;;;5.3;4.8;;;;;;;;;;;;;
2022/04/26 03:49:13;;;;;;;7.8;4.8;;;;;;;;;;;;;
2022/04/26 03:51:38;;;;;;;6.1;4.7;;;;;;;;;;;;;
2022/04/26 03:54:05;;;;;;;5.1;4.1;;;;;;;;;;;;;
2022/04/26 03:56:30;;;;;;;5;3.8;;;;;;;;;;;;;
2022/04/26 03:58:56;;;;;;;4.7;3.6;;;;;;;;;;;;;
2022/04/26 04:02:38;;;;;;;3.6;3.3;;;;;;;9.39;88.61621;932.9559;;;;
2022/04/26 04:05:09;;;;;;;4.2;3.1;;;;;;;9.39;87.44336;932.9861;;;;
2022/04/26 04:07:41;;;;;;;4.2;3.1;;;;;;;9.36;87.41504;932.9916;;;;
2022/04/26 04:10:15;;;;;;;2.8;2.5;;;;;;;9.31;86.16406;932.9706;;;;
2022/04/26 04:12:49;;;;;;;4;2.7;;;;;;;9.29;85.81738;932.9451;;;;
2022/04/26 04:15:15;;;;;;;3.7;2.6;;;;;;;9.29;86.14746;932.9737;;;;
2022/04/26 04:17:41;;;;;;;5.3;2.6;;;;;;;9.33;86.49805;932.9994;;;;
2022/04/26 04:20:18;;;;;;;3;2.7;;;;;;;9.39;85.42773;933.0147;;;;
2022/04/26 04:22:43;;;;;;;3.6;2.6;;;;;;;9.32;84.74316;933.0422;;;;
2022/04/26 04:25:09;;;;;;;3.2;2.8;;;;;;;9.2;85.20801;933.0452;;;;
2022/04/26 04:27:35;;;;;;;3;2.7;;;;;;;9.31;85.34473;933.0159;;;;
2022/04/26 04:30:14;;;;;;;4.2;2.6;;;;;;;9.38;84.71973;933.0273;;;;
2022/04/26 04:32:39;;;;;;;2.7;2.5;;;;;;;;;;;;;
2022/04/26 04:35:04;;;;;;;5.9;3.1;;;;;;;;;;;;;
2022/04/26 04:37:29;;;;;;;4.6;3.1;;;;;;;;;;;;;
2022/04/26 04:39:56;;;;;;;4.8;3.3;;;;;;;;;;;;;
2022/04/26 04:42:22;;;;;;;6.2;3.6;;;;;;;;;;;;;
2022/04/26 04:44:48;;;;;;;4.8;3.3;;;;;;;;;;;;;
2022/04/26 04:47:13;;;;;;;6.4;3.8;;;;;;;;;;;;;
2022/04/26 04:49:39;;;;;;;5.3;3.2;;;;;;;;;;;;;
2022/04/26 04:52:04;;;;;;;4.8;3.7;;;;;;;;;;;;;
2022/04/26 04:54:31;;;;;;;5.3;3.2;;;;;;;;;;;;;
2022/04/26 04:56:56;;;;;;;7.1;3.6;;;;;;;;;;;;;
2022/04/26 04:59:22;;;;;;;8.5;4.9;;;;;;;;;;;;;
2022/04/26 05:01:47;;;;;;;6.9;5.6;;;;;;;;;;;;;
2022/04/26 05:04:14;;;;;;;4.8;3.8;;;;;;;;;;;;;
2022/04/26 05:06:39;;;;;;;5.5;4.5;;;;;;;;;;;;;
2022/04/26 05:09:05;;;;;;;5.1;4.4;;;;;;;;;;;;;
2022/04/26 05:11:31;;;;;;;7.6;4.4;;;;;;;;;;;;;
2022/04/26 05:13:58;;;;;;;6.8;4.9;;;;;;;;;;;;;
2022/04/26 05:16:23;;;;;;;6;4.2;;;;;;;;;;;;;
2022/04/26 05:18:50;;;;;;;9.7;5.6;;;;;;;;;;;;;
2022/04/26 05:21:16;;;;;;;7.6;5.3;;;;;;;;;;;;;
2022/04/26 05:26:08;;;;;;;10.2;6.1;;;;;;;;;;;;;
2022/04/26 05:28:34;;;;;;;20.6;18.5;;;;;;;;;;;;;
2022/04/26 05:30:59;;;;;;;9.6;7.4;;;;;;;;;;;;;
2022/04/26 05:33:27;;;;;;;9.1;5.1;;;;;;;;;;;;;
2022/04/26 05:35:52;;;;;;;6.1;5.1;;;;;;;;;;;;;
2022/04/26 05:38:18;;;;;;;6.8;4.8;;;;;;;;;;;;;
2022/04/26 05:40:43;;;;;;;6;4.8;;;;;;;;;;;;;
2022/04/26 05:43:09;;;;;;;9;5.1;;;;;;;;;;;;;
2022/04/26 05:45:34;;;;;;;8.3;5.6;;;;;;;;;;;;;
2022/04/26 05:48:00;;;;;;;7.6;4.9;;;;;;;;;;;;;
2022/04/26 05:50:25;;;;;;;5.8;4.4;;;;;;;;;;;;;
2022/04/26 05:52:50;;;;;;;5.2;4.7;;;;;;;;;;;;;
2022/04/26 05:55:16;;;;;;;4.9;4.2;;;;;;;;;;;;;
2022/04/26 05:57:42;;;;;;;5.5;4.3;;;;;;;;;;;;;
2022/04/26 06:00:07;;;;;;;8;4.6;;;;;;;;;;;;;
2022/04/26 06:02:33;;;;;;;7.4;4.3;;;;;;;;;;;;;
2022/04/26 06:04:58;;;;;;;12.1;5.3;;;;;;;;;;;;;
2022/04/26 06:07:23;;;;;;;8.9;4.4;;;;;;;;;;;;;
2022/04/26 06:09:50;;;;;;;6.8;4.3;;;;;;;;;;;;;
2022/04/26 06:12:15;;;;;;;10.3;5.5;;;;;;;;;;;;;
2022/04/26 06:14:40;;;;;;;5.6;4.6;;;;;;;;;;;;;
2022/04/26 06:17:07;;;;;;;4.1;3.7;;;;;;;;;;;;;
2022/04/26 06:19:32;;;;;;;7;4.3;;;;;;;;;;;;;
2022/04/26 06:21:57;;;;;;;5;4;;;;;;;;;;;;;
2022/04/26 06:24:23;;;;;;;5.4;4.2;;;;;;;;;;;;;
2022/04/26 06:26:48;;;;;;;4.8;3.9;;;;;;;;;;;;;
2022/04/26 06:29:13;;;;;;;4.6;2.9;;;;;;;;;;;;;
2022/04/26 06:31:39;;;;;;;3.1;2.8;;;;;;;;;;;;;
2022/04/26 06:34:04;;;;;;;4.1;3;;;;;;;;;;;;;
2022/04/26 06:36:31;;;;;;;2.9;2.6;;;;;;;;;;;;;
2022/04/26 06:38:56;;;;;;;3.9;2.9;;;;;;;;;;;;;
2022/04/26 06:41:24;;;;;;;3.6;2.7;;;;;;;;;;;;;
2022/04/26 06:43:49;;;;;;;6.2;5.6;;;;;;;;;;;;;
2022/04/26 06:46:15;;;;;;;6.5;5.2;;;;;;;;;;;;;
2022/04/26 06:48:41;;;;;;;15.6;12;;;;;;;;;;;;;
2022/04/26 06:51:05;;;;;;;5.8;4.6;;;;;;;;;;;;;
2022/04/26 06:53:30;;;;;;;4.2;3.8;;;;;;;;;;;;;
2022/04/26 06:55:59;;;;;;;6.3;4.3;;;;;;;;;;;;;
2022/04/26 06:58:22;;;;;;;4;3.6;;;;;;;;;;;;;
2022/04/26 07:00:48;;;;;;;6;3.7;;;;;;;;;;;;;
2022/04/26 07:03:13;;;;;;;5;3.8;;;;;;;;;;;;;
2022/04/26 07:05:41;;;;;;;4.2;3.3;;;;;;;;;;;;;
2022/04/26 07:08:05;;;;;;;5.2;4.1;;;;;;;;;;;;;
2022/04/26 07:10:30;;;;;;;4.3;3.7;;;;;;;;;;;;;
2022/04/26 07:12:55;;;;;;;4.2;3.5;;;;;;;;;;;;;
2022/04/26 07:15:22;;;;;;;3.9;3.1;;;;;;;;;;;;;
2022/04/26 07:17:47;;;;;;;5.6;3.4;;;;;;;;;;;;;
2022/04/26 07:20:14;;;;;;;5.5;3.5;;;;;;;;;;;;;
2022/04/26 07:22:39;;;;;;;7.1;3.2;;;;;;;;;;;;;
2022/04/26 07:25:06;;;;;;;4;3.5;;;;;;;;;;;;;
2022/04/26 07:27:31;;;;;;;3.8;3.3;;;;;;;;;;;;;
2022/04/26 07:29:56;;;;;;;6.2;3.9;;;;;;;;;;;;;
2022/04/26 07:34:20;;;;;;;5.3;3.6;;;;;;;;;;;;;
2022/04/26 07:34:47;;;;;;;5.2;3.7;;;;;;;;;;;;;
2022/04/26 07:37:13;;;;;;;4.5;3.8;;;;;;;;;;;;;
2022/04/26 07:39:38;;;;;;;4.6;3.8;;;;;;;;;;;;;
2022/04/26 07:42:04;;;;;;;4.4;3.8;;;;;;;;;;;;;
2022/04/26 07:44:29;;;;;;;4.1;3.7;;;;;;;;;;;;;
2022/04/26 07:46:56;;;;;;;4.7;4.1;;;;;;;;;;;;;
2022/04/26 07:49:23;;;;;;;4.4;4;;;;;;;;;;;;;
2022/04/26 07:51:46;;;;;;;4.3;3.9;;;;;;;;;;;;;
2022/04/26 07:54:12;;;;;;;4.3;3.9;;;;;;;;;;;;;
2022/04/26 07:56:37;;;;;;;4.2;3.8;;;;;;;;;;;;;
2022/04/26 07:59:03;;;;;;;4.1;3.7;;;;;;;;;;;;;
2022/04/26 08:01:28;;;;;;;4.2;3.6;;;;;;;;;;;;;
2022/04/26 08:03:56;;;;;;;4;3.6;;;;;;;;;;;;;
2022/04/26 08:06:22;;;;;;;4.2;3.8;;;;;;;;;;;;;
2022/04/26 08:08:47;;;;;;;5.1;4;;;;;;;;;;;;;
2022/04/26 08:11:13;;;;;;;4.4;3.8;;;;;;;;;;;;;
2022/04/26 08:13:39;;;;;;;4.7;3.5;;;;;;;;;;;;;
2022/04/26 08:16:04;;;;;;;3.6;3.3;;;;;;;;;;;;;
2022/04/26 08:18:29;;;;;;;4.3;3.7;;;;;;;;;;;;;
2022/04/26 08:20:54;;;;;;;4.2;3.7;;;;;;;;;;;;;
2022/04/26 08:23:21;;;;;;;5.1;3.7;;;;;;;;;;;;;
2022/04/26 08:28:11;;;;;;;3.6;3.3;;;;;;;;;;;;;
2022/04/26 08:30:36;;;;;;;3.9;3.4;;;;;;;;;;;;;
2022/04/26 08:33:03;;;;;;;3.4;3.1;;;;;;;;;;;;;
2022/04/26 08:35:29;;;;;;;3.7;3.4;;;;;;;;;;;;;
2022/04/26 08:37:55;;;;;;;3.4;3.1;;;;;;;;;;;;;
2022/04/26 08:40:20;;;;;;;4.1;3.6;;;;;;;;;;;;;
2022/04/26 08:42:46;;;;;;;3.6;3.3;;;;;;;;;;;;;
2022/04/26 08:45:10;;;;;;;3.9;3.5;;;;;;;;;;;;;
2022/04/26 08:52:27;;;;;;;4.7;3.4;;;;;;;;;;;;;
2022/04/26 08:54:52;;;;;;;3.7;3.4;;;;;;;;;;;;;
2022/04/26 08:57:17;;;;;;;3.8;3.5;;;;;;;;;;;;;
2022/04/26 08:59:42;;;;;;;3.9;3.5;;;;;;;;;;;;;
2022/04/26 09:02:09;;;;;;;3.3;2.9;;;;;;;;;;;;;
2022/04/26 09:04:34;;;;;;;3.1;2.5;;;;;;;;;;;;;
2022/04/26 09:06:59;;;;;;;2.9;2.7;;;;;;;;;;;;;
2022/04/26 09:09:27;;;;;;;2.5;2.3;;;;;;;;;;;;;
2022/04/26 09:11:54;;;;;;;3;2.7;;;;;;;;;;;;;
2022/04/26 09:14:17;;;;;;;2.9;2.6;;;;;;;;;;;;;
2022/04/26 09:16:43;;;;;;;3;2.7;;;;;;;;;;;;;
2022/04/26 09:19:08;;;;;;;2.6;2.4;;;;;;;;;;;;;
2022/04/26 09:21:33;;;;;;;3.1;2.5;;;;;;;;;;;;;
2022/04/26 09:24:00;;;;;;;2.5;2.3;;;;;;;;;;;;;
2022/04/26 09:26:26;;;;;;;3;2.7;;;;;;;;;;;;;
2022/04/26 09:28:52;;;;;;;3.2;2.9;;;;;;;;;;;;;
2022/04/26 09:31:17;;;;;;;2.8;2.6;;;;;;;;;;;;;
2022/04/26 09:33:47;;;;;;;2.8;2.6;;;;;;;;;;;;;
2022/04/26 09:36:09;;;;;;;3.2;2.9;;;;;;;;;;;;;
2022/04/26 09:38:33;;;;;;;3.1;2.8;;;;;;;;;;;;;
2022/04/26 09:41:00;;;;;;;3.5;3.2;;;;;;;;;;;;;
2022/04/26 09:43:26;;;;;;;3;2.7;;;;;;;;;;;;;
2022/04/26 09:45:50;;;;;;;3.5;3;;;;;;;;;;;;;
2022/04/26 09:48:16;;;;;;;3.2;2.9;;;;;;;;;;;;;
2022/04/26 09:50:41;;;;;;;2.9;2.7;;;;;;;;;;;;;
2022/04/26 09:53:07;;;;;;;2.7;2.5;;;;;;;;;;;;;
2022/04/26 09:55:32;;;;;;;3.3;3;;;;;;;;;;;;;
2022/04/26 09:57:57;;;;;;;3;2.8;;;;;;;;;;;;;
2022/04/26 10:00:24;;;;;;;3.2;2.8;;;;;;;;;;;;;
2022/04/26 10:02:53;;;;;;;3;2.7;;;;;;;;;;;;;
2022/04/26 10:05:20;;;;;;;3.3;2.7;;;;;;;;;;;;;
2022/04/26 10:07:41;;;;;;;2.6;2.4;;;;;;;;;;;;;
2022/04/26 10:10:09;;;;;;;2.5;2.3;;;;;;;;;;;;;
2022/04/26 10:12:33;;;;;;;2.5;2.3;;;;;;;;;;;;;
2022/04/26 10:14:58;;;;;;;2.3;2.1;;;;;;;;;;;;;
2022/04/26 10:17:24;;;;;;;2.5;2.3;;;;;;;;;;;;;
2022/04/26 10:19:48;;;;;;;3.1;2.1;;;;;;;;;;;;;
2022/04/26 10:22:17;;;;;;;2.3;2.1;;;;;;;;;;;;;
2022/04/26 10:24:42;;;;;;;2.4;2.2;;;;;;;;;;;;;
2022/04/26 10:27:07;;;;;;;2.2;2;;;;;;;;;;;;;
2022/04/26 10:29:33;;;;;;;3;2.3;;;;;;;;;;;;;
2022/04/26 10:31:58;;;;;;;2.4;2.2;;;;;;;;;;;;;
2022/04/26 10:34:24;;;;;;;2.7;2.4;;;;;;;;;;;;;
2022/04/26 10:36:49;;;;;;;2.6;2.4;;;;;;;;;;;;;
2022/04/26 10:39:16;;;;;;;2.6;2.4;;;;;;;;;;;;;
2022/04/26 10:41:40;;;;;;;3.1;2.8;;;;;;;;;;;;;
2022/04/26 10:44:05;;;;;;;3.9;3;;;;;;;;;;;;;
2022/04/26 10:46:32;;;;;;;7.3;3;;;;;;;;;;;;;
2022/04/26 10:49:26;;;;;;;5.2;2.3;;;;;;;;;;;;;
2022/04/26 10:51:51;;;;;;;3.7;1.1;;;;;;;;;;;;;
2022/04/26 10:54:16;;;;;;;0.8;0.6;;;;;;;;;;;;;
2022/04/26 10:56:41;;;;;;;1.8;0.8;;;;;;;;;;;;;
2022/04/26 10:59:07;;;;;;;1;0.5;;;;;;;;;;;;;
2022/04/26 11:01:32;;;;;;;0.4;0.4;;;;;;;;;;;;;
2022/04/26 11:03:58;;;;;;;1.6;0.4;;;;;;;;;;;;;
2022/04/26 11:06:23;;;;;;;0.6;0.4;;;;;;;;;;;;;
2022/04/26 11:08:49;;;;;;;0.5;0.4;;;;;;;;;;;;;
2022/04/26 11:11:14;;;;;;;0.5;0.4;;;;;;;;;;;;;
2022/04/26 11:13:40;;;;;;;0.8;0.4;;;;;;;;;;;;;
2022/04/26 11:16:05;;;;;;;0.5;0.4;;;;;;;;;;;;;
2022/04/26 11:18:33;;;;;;;3;1.6;;;;;;;;;;;;;
2022/04/26 11:20:58;;;;;;;1.1;0.4;;;;;;;;;;;;;
2022/04/26 11:28:17;;;;;;;1.1;0.3;;;;;;;;;;;;;
2022/04/26 11:30:40;;;;;;;0.6;0.4;;;;;;;;;;;;;
2022/04/26 11:33:06;;;;;;;0.5;0.5;;;;;;;;;;;;;
2022/04/26 11:35:31;;;;;;;0.9;0.6;;;;;;;;;;;;;
2022/04/26 11:37:58;;;;;;;0.7;0.5;;;;;;;;;;;;;
2022/04/26 11:40:23;;;;;;;0.9;0.5;;;;;;;;;;;;;
2022/04/26 11:42:48;;;;;;;0.3;0.2;;;;;;;;;;;;;
2022/04/26 11:45:15;;;;;;;2.5;0.3;;;;;;;;;;;;;
2022/04/26 11:47:40;;;;;;;1.2;0.7;;;;;;;;;;;;;
2022/04/26 11:50:06;;;;;;;0.7;0.7;;;;;;;;;;;;;
2022/04/26 11:52:31;;;;;;;0.5;0.4;;;;;;;;;;;;;
2022/04/26 11:54:56;;;;;;;1.5;1.2;;;;;;;;;;;;;
2022/04/26 11:57:21;;;;;;;1.2;0.7;;;;;;;;;;;;;
2022/04/26 11:59:48;;;;;;;3.8;2.1;;;;;;;;;;;;;
2022/04/26 12:02:12;;;;;;;32.3;15.9;;;;;;;;;;;;;
2022/04/26 12:04:39;;;;;;;4.4;2.8;;;;;;;;;;;;;
2022/04/26 12:07:04;;;;;;;1.7;1;;;;;;;;;;;;;
2022/04/26 12:09:31;;;;;;;1.7;0.9;;;;;;;;;;;;;
2022/04/26 12:11:56;;;;;;;0.5;0.4;;;;;;;;;;;;;
2022/04/26 12:14:22;;;;;;;0.8;0.5;;;;;;;;;;;;;
2022/04/26 12:16:47;;;;;;;0.7;0.4;;;;;;;;;;;;;
2022/04/26 12:19:12;;;;;;;0.8;0.7;;;;;;;;;;;;;
2022/04/26 12:21:37;;;;;;;1.1;0.7;;;;;;;;;;;;;
2022/04/26 12:24:04;;;;;;;0.4;0.4;;;;;;;;;;;;;
2022/04/26 12:26:30;;;;;;;0.3;0.3;;;;;;;;;;;;;
2022/04/26 12:28:57;;;;;;;0.9;0.4;;;;;;;;;;;;;
2022/04/26 12:31:22;;;;;;;0.5;0.4;;;;;;;;;;;;;
2022/04/26 12:33:49;;;;;;;1.2;0.6;;;;;;;;;;;;;
2022/04/26 12:36:14;;;;;;;0.6;0.6;;;;;;;;;;;;;
2022/04/26 12:38:40;;;;;;;0.5;0.5;;;;;;;;;;;;;
2022/04/26 12:41:05;;;;;;;0.3;0.3;;;;;;;;;;;;;
2022/04/26 12:43:31;;;;;;;0.2;0.2;;;;;;;;;;;;;
2022/04/26 12:45:56;;;;;;;0.3;0.3;;;;;;;;;;;;;
2022/04/26 12:50:51;;;;;;;1.9;1.1;;;;;;;;;;;;;
2022/04/26 12:53:20;;;;;;;1.3;0.7;;;;;;;;;;;;;
2022/04/26 12:55:45;;;;;;;1;0.7;;;;;;;;;;;;;
2022/04/26 12:58:11;;;;;;;1.1;1;;;;;;;;;;;;;
2022/04/26 13:00:36;;;;;;;1.6;1.1;;;;;;;;;;;;;
2022/04/26 13:03:04;;;;;;;1.1;1;;;;;;;;;;;;;
2022/04/26 13:05:30;;;;;;;1.4;0.9;;;;;;;;;;;;;
2022/04/26 13:07:56;;;;;;;1.1;1;;;;;;;;;;;;;
2022/04/26 13:10:22;;;;;;;0.5;0.5;;;;;;;;;;;;;
2022/04/26 13:12:49;;;;;;;1;0.7;;;;;;;;;;;;;
2022/04/26 13:15:15;;;;;;;1.8;0.7;;;;;;;;;;;;;
2022/04/26 13:17:43;;;;;;;1;0.5;;;;;;;;;;;;;
2022/04/26 13:20:10;;;;;;;0.9;0.8;;;;;;;;;;;;;
2022/04/26 13:22:33;;;;;;;0.5;0.5;;;;;;;;;;;;;
2022/04/26 13:24:59;;;;;;;0.8;0.5;;;;;;;;;;;;;
2022/04/26 13:27:24;;;;;;;0.8;0.7;;;;;;;;;;;;;
2022/04/26 13:29:50;;;;;;;0.7;0.5;;;;;;;;;;;;;
2022/04/26 13:32:14;;;;;;;0.6;0.6;;;;;;;;;;;;;
2022/04/26 13:34:42;;;;;;;0.3;0.3;;;;;;;;;;;;;
2022/04/26 13:37:08;;;;;;;0.7;0.4;;;;;;;;;;;;;
2022/04/26 13:39:34;;;;;;;1.2;0.5;;;;;;;;;;;;;
2022/04/26 13:41:59;;;;;;;0.5;0.4;;;;;;;;;;;;;
2022/04/26 13:44:27;;;;;;;0.4;0.4;;;;;;;;;;;;;
2022/04/26 13:46:53;;;;;;;0.4;0.4;;;;;;;;;;;;;
2022/04/26 13:49:20;;;;;;;0.7;0.6;;;;;;;;;;;;;
2022/04/26 13:51:45;;;;;;;0.4;0.4;;;;;;;;;;;;;
2022/04/26 13:54:13;;;;;;;0.3;0.3;;;;;;;;;;;;;
2022/04/26 13:56:38;;;;;;;0.6;0.5;;;;;;;;;;;;;
2022/04/26 13:59:05;;;;;;;0.8;0.6;;;;;;;;;;;;;
2022/04/26 14:01:30;;;;;;;0.5;0.5;;;;;;;;;;;;;
2022/04/26 14:03:57;;;;;;;1;0.7;;;;;;;;;;;;;
2022/04/26 14:06:22;;;;;;;0.7;0.6;;;;;;;;;;;;;
2022/04/26 14:08:49;;;;;;;0.4;0.4;;;;;;;;;;;;;
2022/04/26 14:11:13;;;;;;;0.3;0.3;;;;;;;;;;;;;
2022/04/26 14:23:21;;;;;;;1.4;0.7;;;;;;;;;;;;;
2022/04/26 14:25:47;;;;;;;0.5;0.5;;;;;;;;;;;;;
2022/04/26 14:28:12;;;;;;;0.6;0.6;;;;;;;;;;;;;
2022/04/26 14:30:38;;;;;;;1;0.5;;;;;;;;;;;;;
2022/04/26 14:33:03;;;;;;;0.2;0.2;;;;;;;;;;;;;
2022/04/26 14:35:32;;;;;;;0.6;0.6;;;;;;;;;;;;;
2022/04/26 14:37:56;;;;;;;0.2;0.2;;;;;;;;;;;;;
2022/04/26 14:40:24;;;;;;;0.4;0.4;;;;;;;;;;;;;
2022/04/26 14:42:49;;;;;;;0.4;0.4;;;;;;;;;;;;;
2022/04/26 14:45:14;;;;;;;0.5;0.4;;;;;;;;;;;;;
2022/04/26 14:47:40;;;;;;;0.3;0.3;;;;;;;;;;;;;
2022/04/26 14:50:09;;;;;;;0.8;0.4;;;;;;;;;;;;;
2022/04/26 14:52:36;;;;;;;0.3;0.3;;;;;;;;;;;;;
2022/04/26 14:55:04;;;;;;;0.3;0.3;;;;;;;;;;;;;
2022/04/26 14:57:30;;;;;;;0.2;0.2;;;;;;;;;;;;;
2022/04/26 14:59:55;;;;;;;0.3;0.3;;;;;;;;;;;;;
2022/04/26 15:02:22;;;;;;;1.7;0.3;;;;;;;;;;;;;
2022/04/26 15:04:47;;;;;;;1.3;1.1;;;;;;;;;;;;;
2022/04/26 15:07:14;;;;;;;0.7;0.7;;;;;;;;;;;;;
2022/04/26 15:09:51;;;;;;;1.6;1.5;;;;;;;;;;;;;
2022/04/26 15:16:56;;;;;;;0.6;0.6;;;;;;;;;;;;;
2022/04/26 15:19:26;;;;;;;0.8;0.4;;;;;;;;;;;;;
2022/04/26 15:21:51;;;;;;;3.4;1;;;;;;;;;;;;;
2022/04/26 15:24:18;;;;;;;1.9;0.7;;;;;;;;;;;;;
2022/04/26 15:26:42;;;;;;;1;0.8;;;;;;;;;;;;;
2022/04/26 15:29:08;;;;;;;1;0.6;;;;;;;;;;;;;
2022/04/26 15:31:33;;;;;;;0.9;0.5;;;;;;;;;;;;;
2022/04/26 15:33:59;;;;;;;1.7;1.3;;;;;;;;;;;;;
2022/04/26 15:36:24;;;;;;;1.5;1.4;;;;;;;;;;;;;
2022/04/26 15:38:50;;;;;;;1.2;0.9;;;;;;;;;;;;;
2022/04/26 15:41:16;;;;;;;0.7;0.7;;;;;;;;;;;;;
2022/04/26 15:43:41;;;;;;;0.9;0.6;;;;;;;;;;;;;
2022/04/26 15:46:06;;;;;;;0.5;0.4;;;;;;;;;;;;;
2022/04/26 15:48:34;;;;;;;0.5;0.5;;;;;;;;;;;;;
2022/04/26 15:50:58;;;;;;;0.8;0.6;;;;;;;;;;;;;
2022/04/26 15:53:24;;;;;;;2.2;1.3;;;;;;;;;;;;;
2022/04/26 15:55:49;;;;;;;1.3;0.7;;;;;;;;;;;;;
2022/04/26 15:58:15;;;;;;;1.3;0.7;;;;;;;;;;;;;
2022/04/26 16:00:40;;;;;;;0.9;0.7;;;;;;;;;;;;;
2022/04/26 16:03:07;;;;;;;7.6;4.3;;;;;;;;;;;;;
2022/04/26 16:05:33;;;;;;;1.4;1.2;;;;;;;;;;;;;
2022/04/26 16:07:58;;;;;;;2.5;1.9;;;;;;;;;;;;;
2022/04/26 16:22:29;;;;;;;1.4;0.9;;;;;;;;;;;;;
2022/04/26 16:24:56;;;;;;;3;1.1;;;;;;;;;;;;;
2022/04/26 16:27:21;;;;;;;1.4;0.7;;;;;;;;;;;;;
2022/04/26 16:29:49;;;;;;;3.8;1.7;;;;;;;;;;;;;
2022/04/26 16:32:14;;;;;;;2;1.5;;;;;;;;;;;;;
2022/04/26 16:34:39;;;;;;;3;1.7;;;;;;;;;;;;;
2022/04/26 16:37:04;;;;;;;3.3;1.8;;;;;;;;;;;;;
2022/04/26 16:39:30;;;;;;;3.8;2.4;;;;;;;;;;;;;
2022/04/26 16:41:55;;;;;;;2.3;2;;;;;;;;;;;;;
2022/04/26 16:44:23;;;;;;;2.4;2.2;;;;;;;;;;;;;
2022/04/26 16:46:47;;;;;;;2.2;1.4;;;;;;;;;;;;;
2022/04/26 16:49:12;;;;;;;1.9;1.7;;;;;;;;;;;;;
2022/04/26 16:51:38;;;;;;;3;2.1;;;;;;;;;;;;;
2022/04/26 16:54:05;;;;;;;4.5;2.6;;;;;;;;;;;;;
2022/04/26 16:56:31;;;;;;;3.1;2.2;;;;;;;;;;;;;
2022/04/26 16:58:55;;;;;;;2.4;1.2;;;;;;;;;;;;;
2022/04/26 17:01:20;;;;;;;1.5;1.2;;;;;;;;;;;;;
2022/04/26 17:03:47;;;;;;;1.7;1.6;;;;;;;;;;;;;
2022/04/26 17:06:12;;;;;;;2.3;1.7;;;;;;;;;;;;;
2022/04/26 17:08:38;;;;;;;2.7;1.3;;;;;;;;;;;;;
2022/04/26 17:13:28;;;;;;;3.3;2.6;;;;;;;;;;;;;
2022/04/26 17:15:56;;;;;;;8.5;3.1;;;;;;;;;;;;;
2022/04/26 17:18:20;;;;;;;1.6;1.5;;;;;;;;;;;;;
2022/04/26 17:20:46;;;;;;;1.7;1.6;;;;;;;;;;;;;
2022/04/26 17:23:11;;;;;;;2;1.8;;;;;;;;;;;;;
2022/04/26 17:25:37;;;;;;;3.3;1.9;;;;;;;;;;;;;
2022/04/26 17:28:02;;;;;;;2.3;2;;;;;;;;;;;;;
2022/04/26 17:30:28;;;;;;;2.2;2;;;;;;;;;;;;;
2022/04/26 17:32:53;;;;;;;2.2;1.5;;;;;;;;;;;;;
2022/04/26 17:35:19;;;;;;;3.8;2.6;;;;;;;;;;;;;
2022/04/26 17:37:45;;;;;;;3.8;2.5;;;;;;;;;;;;;
2022/04/26 17:40:15;;;;;;;3.6;2.8;;;;;;;;;;;;;
2022/04/26 17:42:44;;;;;;;4.9;3.4;;;;;;;;;;;;;
2022/04/26 17:45:09;;;;;;;5;3.8;;;;;;;;;;;;;
2022/04/26 17:47:36;;;;;;;3.1;2.8;;;;;;;;;;;;;
2022/04/26 17:50:01;;;;;;;4.8;3.2;;;;;;;;;;;;;
2022/04/26 17:52:27;;;;;;;2.4;1.5;;;;;;;;;;;;;
2022/04/26 17:57:17;;;;;;;4.7;3.5;;;;;;;;;;;;;
2022/04/26 17:59:44;;;;;;;4.8;3.8;;;;;;;;;;;;;
2022/04/26 18:02:11;;;;;;;4.3;3.8;;;;;;;;;;;;;
2022/04/26 18:04:36;;;;;;;4.6;3.4;;;;;;;;;;;;;
2022/04/26 18:07:01;;;;;;;3;2.3;;;;;;;;;;;;;
2022/04/26 18:09:28;;;;;;;4.8;3.6;;;;;;;;;;;;;
2022/04/26 18:11:53;;;;;;;3.3;2.9;;;;;;;;;;;;;
2022/04/26 18:14:20;;;;;;;2.4;1.7;;;;;;;;;;;;;
2022/04/26 18:16:45;;;;;;;5.3;3.2;;;;;;;;;;;;;
2022/04/26 18:19:11;;;;;;;2.4;2;;;;;;;;;;;;;
2022/04/26 18:21:36;;;;;;;2.5;2.2;;;;;;;;;;;;;
2022/04/26 18:24:02;;;;;;;2.7;2.2;;;;;;;;;;;;;
2022/04/26 18:26:26;;;;;;;2.9;2.3;;;;;;;;;;;;;
2022/04/26 18:28:56;;;;;;;4;2.6;;;;;;;;;;;;;
2022/04/26 18:31:19;;;;;;;3.1;2.5;;;;;;;;;;;;;
2022/04/26 18:33:45;;;;;;;3.2;2.3;;;;;;;;;;;;;
2022/04/26 18:36:10;;;;;;;3.7;2.6;;;;;;;;;;;;;
2022/04/26 18:38:38;;;;;;;3.9;2.9;;;;;;;;;;;;;
2022/04/26 18:41:03;;;;;;;6.3;2.9;;;;;;;;;;;;;
2022/04/26 18:43:29;;;;;;;4.3;3.5;;;;;;;;;;;;;
2022/04/26 18:45:54;;;;;;;3.8;3.3;;;;;;;;;;;;;
2022/04/26 18:48:20;;;;;;;3.2;2.9;;;;;;;;;;;;;
2022/04/26 18:50:45;;;;;;;3.3;3;;;;;;;;;;;;;
2022/04/26 18:53:11;;;;;;;3.4;2.9;;;;;;;;;;;;;
2022/04/26 18:55:36;;;;;;;8.1;3.4;;;;;;;;;;;;;
2022/04/26 18:58:03;;;;;;;5.3;4;;;;;;;;;;;;;
2022/04/26 19:00:29;;;;;;;3.5;3.2;;;;;;;;;;;;;
2022/04/26 19:03:00;;;;;;;4.3;3.3;;;;;;;;;;;;;
2022/04/26 19:05:27;;;;;;;6.3;4;;;;;;;;;;;;;
2022/04/26 19:07:52;;;;;;;4.7;3.2;;;;;;;;;;;;;
2022/04/26 19:12:43;;;;;;;5.1;2.9;;;;;;;;;;;;;
2022/04/26 19:15:12;;;;;;;4;2.8;;;;;;;;;;;;;
2022/04/26 19:17:37;;;;;;;3.4;3.1;;;;;;;;;;;;;
2022/04/26 19:20:03;;;;;;;5;3.9;;;;;;;;;;;;;
2022/04/26 19:22:28;;;;;;;6.6;4.2;;;;;;;;;;;;;
2022/04/26 19:24:55;;;;;;;3.1;2.8;;;;;;;;;;;;;
2022/04/26 19:27:20;;;;;;;2.8;2.5;;;;;;;;;;;;;
2022/04/26 19:29:45;;;;;;;3.5;2.9;;;;;;;;;;;;;
2022/04/26 19:32:10;;;;;;;3.3;3;;;;;;;;;;;;;
2022/04/26 19:34:37;;;;;;;4.5;3.3;;;;;;;;;;;;;
2022/04/26 19:37:02;;;;;;;3.4;3.1;;;;;;;;;;;;;
2022/04/26 19:39:28;;;;;;;3.6;3.1;;;;;;;;;;;;;
2022/04/26 19:41:53;;;;;;;4.4;3.6;;;;;;;;;;;;;
2022/04/26 19:44:19;;;;;;;6;4.1;;;;;;;;;;;;;
2022/04/26 19:46:44;;;;;;;6.2;3.9;;;;;;;;;;;;;
2022/04/26 19:49:12;;;;;;;15.3;9.5;;;;;;;;;;;;;
2022/04/26 19:51:37;;;;;;;8.3;4.9;;;;;;;;;;;;;
2022/04/26 19:54:03;;;;;;;8.4;5.2;;;;;;;;;;;;;
2022/04/26 19:56:28;;;;;;;4.2;3;;;;;;;;;;;;;
2022/04/26 19:58:53;;;;;;;3;2.6;;;;;;;;;;;;;
2022/04/26 20:01:18;;;;;;;2.6;2.4;;;;;;;;;;;;;
2022/04/26 20:03:46;;;;;;;4.5;4.1;;;;;;;;;;;;;
2022/04/26 20:06:11;;;;;;;4.3;3.9;;;;;;;;;;;;;
2022/04/26 20:08:37;;;;;;;2.9;2.7;;;;;;;;;;;;;
2022/04/26 20:11:02;;;;;;;4;2.7;;;;;;;;;;;;;
2022/04/26 20:13:28;;;;;;;4.2;2.9;;;;;;;;;;;;;
2022/04/26 20:15:53;;;;;;;3.8;3;;;;;;;;;;;;;
2022/04/26 20:18:20;;;;;;;3.9;2.9;;;;;;;;;;;;;
2022/04/26 20:20:46;;;;;;;4.8;3.9;;;;;;;;;;;;;
2022/04/26 20:23:12;;;;;;;5.3;3.7;;;;;;;;;;;;;
2022/04/26 20:30:27;;;;;;;3.5;3.2;;;;;;;;;;;;;
2022/04/26 20:32:56;;;;;;;3.8;2.7;;;;;;;;;;;;;
2022/04/26 20:35:22;;;;;;;3.6;3.2;;;;;;;;;;;;;
2022/04/26 20:37:47;;;;;;;6.1;3.5;;;;;;;;;;;;;
2022/04/26 20:40:13;;;;;;;11;7.3;;;;;;;;;;;;;
2022/04/26 20:42:42;;;;;;;13.2;8.8;;;;;;;;;;;;;
2022/04/26 20:45:06;;;;;;;6.3;4.3;;;;;;;;;;;;;
2022/04/26 20:47:34;;;;;;;5.5;3.9;;;;;;;;;;;;;
2022/04/26 20:50:02;;;;;;;7.7;6.6;;;;;;;;;;;;;
2022/04/26 20:52:27;;;;;;;3.9;3.5;;;;;;;;;;;;;
2022/04/26 20:54:54;;;;;;;4.6;3.5;;;;;;;;;;;;;
2022/04/26 20:57:19;;;;;;;3.7;3.3;;;;;;;;;;;;;
2022/04/26 20:59:45;;;;;;;4.8;4.3;;;;;;;;;;;;;
2022/04/26 21:02:10;;;;;;;5.5;4.6;;;;;;;;;;;;;
2022/04/26 21:04:36;;;;;;;5.4;4.9;;;;;;;;;;;;;
2022/04/26 21:07:02;;;;;;;5.8;5;;;;;;;;;;;;;
2022/04/26 21:09:27;;;;;;;6.3;5.5;;;;;;;;;;;;;
2022/04/26 21:11:51;;;;;;;11.9;10.7;;;;;;;;;;;;;
2022/04/26 21:14:17;;;;;;;9.2;6.1;;;;;;;;;;;;;
2022/04/26 21:16:43;;;;;;;7.2;5.3;;;;;;;;;;;;;
2022/04/26 21:19:08;;;;;;;6.9;4.7;;;;;;;;;;;;;
2022/04/26 21:21:34;;;;;;;4.5;3.5;;;;;;;;;;;;;
2022/04/26 21:23:59;;;;;;;3.6;3.3;;;;;;;;;;;;;
2022/04/26 21:26:25;;;;;;;3.5;3.2;;;;;;;;;;;;;
2022/04/26 21:28:51;;;;;;;4.6;3.8;;;;;;;;;;;;;
2022/04/26 21:31:16;;;;;;;4.1;3.4;;;;;;;;;;;;;
2022/04/26 21:33:42;;;;;;;4.2;2.8;;;;;;;;;;;;;
2022/04/26 21:36:07;;;;;;;4;3.6;;;;;;;;;;;;;
2022/04/26 21:38:34;;;;;;;3.1;2.8;;;;;;;;;;;;;
2022/04/26 21:40:59;;;;;;;5.1;3.2;;;;;;;;;;;;;
2022/04/26 21:43:24;;;;;;;4.3;3.4;;;;;;;;;;;;;
2022/04/26 21:45:51;;;;;;;3.8;3.3;;;;;;;;;;;;;
2022/04/26 21:48:16;;;;;;;3.1;2.8;;;;;;;;;;;;;
2022/04/26 21:53:07;;;;;;;5.3;3.7;;;;;;;;;;;;;
2022/04/26 21:55:34;;;;;;;3.8;3.4;;;;;;;;;;;;;
2022/04/26 21:58:00;;;;;;;4.4;3.4;;;;;;;;;;;;;
2022/04/26 22:00:25;;;;;;;4.7;3.8;;;;;;;;;;;;;
2022/04/26 22:02:50;;;;;;;3.5;3.2;;;;;;;;;;;;;
2022/04/26 22:05:17;;;;;;;5.3;3.6;;;;;;;;;;;;;
2022/04/26 22:07:42;;;;;;;3.5;3.2;;;;;;;;;;;;;
2022/04/26 22:10:09;;;;;;;3.6;3.1;;;;;;;;;;;;;
2022/04/26 22:12:34;;;;;;;3.6;3.1;;;;;;;;;;;;;
2022/04/26 22:15:00;;;;;;;3.2;2.9;;;;;;;;;;;;;
2022/04/26 22:17:25;;;;;;;3.4;3.1;;;;;;;;;;;;;
2022/04/26 22:19:50;;;;;;;4;2.7;;;;;;;;;;;;;
2022/04/26 22:22:15;;;;;;;5.7;3.2;;;;;;;;;;;;;
2022/04/26 22:24:40;;;;;;;4.3;2.9;;;;;;;;;;;;;
2022/04/26 22:27:06;;;;;;;4;3;;;;;;;;;;;;;
2022/04/26 22:29:31;;;;;;;5.9;3.2;;;;;;;;;;;;;
2022/04/26 22:31:56;;;;;;;5;3.1;;;;;;;;;;;;;
2022/04/26 22:34:21;;;;;;;5.9;3.1;;;;;;;;;;;;;
2022/04/26 22:36:48;;;;;;;5;3.3;;;;;;;;;;;;;
2022/04/26 22:39:12;;;;;;;3;2.8;;;;;;;;;;;;;
2022/04/26 22:41:38;;;;;;;3.3;3;;;;;;;;;;;;;
2022/04/26 22:44:03;;;;;;;3.9;3.2;;;;;;;;;;;;;
2022/04/26 22:46:29;;;;;;;3.9;3;;;;;;;;;;;;;
2022/04/26 22:48:55;;;;;;;3.7;2.8;;;;;;;;;;;;;
2022/04/26 22:51:21;;;;;;;3.4;3.1;;;;;;;;;;;;;
2022/04/26 22:53:47;;;;;;;3.2;2.9;;;;;;;;;;;;;
2022/04/26 22:56:12;;;;;;;4.2;3;;;;;;;;;;;;;
2022/04/26 22:58:37;;;;;;;3.6;3;;;;;;;;;;;;;
2022/04/26 23:01:07;;;;;;;3.1;2.8;;;;;;;;;;;;;
2022/04/26 23:03:40;;;;;;;3.3;3;;;;;;;;;;;;;
2022/04/26 23:06:08;;;;;;;4;3.5;;;;;;;;;;;;;
2022/04/26 23:08:40;;;;;;;4.2;3.3;;;;;;;;;;;;;
2022/04/26 23:11:09;;;;;;;3.5;3;;;;;;;;;;;;;
2022/04/26 23:13:38;;;;;;;3.5;3.2;;;;;;;;;;;;;
2022/04/26 23:16:10;;;;;;;3.6;3.3;;;;;;;;;;;;;
2022/04/26 23:18:41;;;;;;;3.6;2.9;;;;;;;;;;;;;
2022/04/26 23:21:07;;;;;;;3.7;3.2;;;;;;;;;;;;;
2022/04/26 23:23:32;;;;;;;3.9;3.4;;;;;;;;;;;;;
2022/04/26 23:25:58;;;;;;;4.6;3;;;;;;;;;;;;;
2022/04/26 23:28:23;;;;;;;3.6;3.1;;;;;;;;;;;;;
2022/04/26 23:30:56;;;;;;;3.6;2.9;;;;;;;;;;;;;
2022/04/26 23:33:20;;;;;;;3.9;3.2;;;;;;;;;;;;;
2022/04/26 23:35:52;;;;;;;4;3.2;;;;;;;;;;;;;
2022/04/26 23:38:29;;;;;;;3.1;2.8;;;;;;;;;;;;;
2022/04/26 23:40:53;;;;;;;3.5;3.2;;;;;;;;;;;;;
2022/04/26 23:43:26;;;;;;;3.3;3;;;;;;;;;;;;;
2022/04/26 23:45:56;;;;;;;3.9;3.1;;;;;;;;;;;;;
2022/04/26 23:48:23;;;;;;;3.9;3.5;;;;;;;;;;;;;
2022/04/26 23:53:16;;;;;;;3.8;3.1;;;;;;;;;;;;;
2022/04/26 23:55:41;;;;;;;4.1;3.1;;;;;;;;;;;;;
2022/04/26 23:58:06;;;;;;;3.3;3;;;;;;;;;;;;;
